createdAt,value
2022-09-28T00:01:16.623Z,94.67
2022-09-28T00:03:43.782Z,94.99
2022-09-28T00:06:12.524Z,94.95
2022-09-28T00:08:39.173Z,95.23
2022-09-28T00:11:07.259Z,95.16
2022-09-28T00:13:34.177Z,95.03
2022-09-28T00:16:06.294Z,95.39
2022-09-28T00:18:33.751Z,95.03
2022-09-28T00:21:14.987Z,95.32
2022-09-28T00:24:02.828Z,95.73
2022-09-28T00:26:31.028Z,95.24
2022-09-28T00:28:59.822Z,95.58
2022-09-28T00:31:29.430Z,95.71
2022-09-28T00:34:00.225Z,95.02
2022-09-28T00:36:28.209Z,95.50
2022-09-28T00:38:58.184Z,94.97
2022-09-28T00:41:27.308Z,95.43
2022-09-28T00:44:15.191Z,95.13
2022-09-28T00:46:41.877Z,94.89
2022-09-28T00:49:15.850Z,95.35
2022-09-28T00:51:44.131Z,95.48
2022-09-28T00:54:12.660Z,95.48
2022-09-28T00:56:42.028Z,95.29
2022-09-28T00:59:09.218Z,95.45
2022-09-28T01:01:39.309Z,95.58
2022-09-28T01:04:06.768Z,95.72
2022-09-28T01:06:35.903Z,95.54
2022-09-28T01:09:05.953Z,95.68
2022-09-28T01:11:33.733Z,95.38
2022-09-28T01:14:01.071Z,95.54
2022-09-28T01:16:45.908Z,95.56
2022-09-28T01:19:27.547Z,95.72
2022-09-28T01:22:26.159Z,95.80
2022-09-28T01:25:22.483Z,95.88
2022-09-28T01:27:59.699Z,95.54
2022-09-28T01:30:26.187Z,95.63
2022-09-28T01:33:04.874Z,95.84
2022-09-28T01:35:47.588Z,95.97
2022-09-28T01:38:33.770Z,95.57
2022-09-28T01:41:00.644Z,95.75
2022-09-28T01:43:28.915Z,96.20
2022-09-28T01:46:17.468Z,96.25
2022-09-28T01:48:50.645Z,95.98
2022-09-28T01:51:24.702Z,96.01
2022-09-28T01:53:55.489Z,96.07
2022-09-28T01:56:28.464Z,95.81
2022-09-28T01:59:02.885Z,96.03
2022-09-28T02:01:40.310Z,95.67
2022-09-28T02:04:14.758Z,95.73
2022-09-28T02:06:58.910Z,96.01
2022-09-28T02:09:44.925Z,95.71
2022-09-28T02:12:29.871Z,95.85
2022-09-28T02:15:06.654Z,95.89
2022-09-28T02:17:33.147Z,95.81
2022-09-28T02:19:59.918Z,95.66
2022-09-28T02:22:37.279Z,95.67
2022-09-28T02:25:10.319Z,95.84
2022-09-28T02:27:42.595Z,95.98
2022-09-28T02:30:10.288Z,95.69
2022-09-28T02:32:41.285Z,95.67
2022-09-28T02:35:10.736Z,95.81
2022-09-28T02:37:37.425Z,95.67
2022-09-28T02:40:13.534Z,95.72
2022-09-28T02:42:55.652Z,95.83
2022-09-28T02:45:35.712Z,96.00
2022-09-28T02:48:43.085Z,95.85
2022-09-28T02:51:13.488Z,96.10
2022-09-28T02:53:57.180Z,96.01
2022-09-28T02:56:48.037Z,96.36
2022-09-28T02:59:28.016Z,96.28
2022-09-28T03:02:15.008Z,96.61
2022-09-28T03:05:05.737Z,96.32
2022-09-28T03:07:41.576Z,96.60
2022-09-28T03:10:13.799Z,96.28
2022-09-28T03:12:43.449Z,96.24
2022-09-28T03:15:19.337Z,96.27
2022-09-28T03:17:45.891Z,96.14
2022-09-28T03:20:12.907Z,95.96
2022-09-28T03:22:39.701Z,95.93
2022-09-28T03:25:07.548Z,96.51
2022-09-28T03:27:34.040Z,96.13
2022-09-28T03:30:00.742Z,96.46
2022-09-28T03:32:27.267Z,95.85
2022-09-28T03:34:53.788Z,96.22
2022-09-28T03:37:20.380Z,96.08
2022-09-28T03:39:46.879Z,96.18
2022-09-28T03:42:13.386Z,95.96
2022-09-28T03:44:39.838Z,95.98
2022-09-28T03:47:09.437Z,96.57
2022-09-28T03:49:35.871Z,96.20
2022-09-28T03:52:03.277Z,96.46
2022-09-28T03:54:29.855Z,96.21
2022-09-28T03:56:56.361Z,96.56
2022-09-28T03:59:22.751Z,96.51
2022-09-28T04:01:50.517Z,96.20
2022-09-28T04:04:17.680Z,96.38
2022-09-28T04:06:44.185Z,96.45
2022-09-28T04:09:12.230Z,96.39
2022-09-28T04:11:59.504Z,96.05
2022-09-28T04:14:24.897Z,96.23
2022-09-28T04:16:55.030Z,96.37
2022-09-28T04:19:25.432Z,96.24
2022-09-28T04:21:52.071Z,96.10
2022-09-28T04:24:20.194Z,96.02
2022-09-28T04:26:46.717Z,95.88
2022-09-28T04:29:19.707Z,95.89
2022-09-28T04:31:51.791Z,96.05
2022-09-28T04:34:20.809Z,96.12
2022-09-28T04:36:48.036Z,96.08
2022-09-28T04:39:16.237Z,96.15
2022-09-28T04:41:42.880Z,95.98
2022-09-28T04:44:09.784Z,96.05
2022-09-28T04:46:36.497Z,96.23
2022-09-28T04:49:03.204Z,96.30
2022-09-28T04:51:35.685Z,96.15
2022-09-28T04:54:02.281Z,96.49
2022-09-28T04:56:28.808Z,96.41
2022-09-28T04:58:55.378Z,96.40
2022-09-28T05:01:24.264Z,96.51
2022-09-28T05:03:54.048Z,96.25
2022-09-28T05:06:21.006Z,96.20
2022-09-28T05:08:47.530Z,96.19
2022-09-28T05:11:14.997Z,96.53
2022-09-28T05:13:45.419Z,96.34
2022-09-28T05:16:14.184Z,96.45
2022-09-28T05:18:40.564Z,96.36
2022-09-28T05:21:14.814Z,96.37
2022-09-28T05:23:46.210Z,96.59
2022-09-28T05:26:12.805Z,96.18
2022-09-28T05:28:39.316Z,96.31
2022-09-28T05:31:05.874Z,96.75
2022-09-28T05:33:33.363Z,96.59
2022-09-28T05:36:01.538Z,96.87
2022-09-28T05:38:29.181Z,96.44
2022-09-28T05:40:55.981Z,96.67
2022-09-28T05:43:22.759Z,96.61
2022-09-28T05:45:54.321Z,96.89
2022-09-28T05:48:21.638Z,96.59
2022-09-28T05:50:52.374Z,96.83
2022-09-28T05:53:18.877Z,96.89
2022-09-28T05:55:48.375Z,97.18
2022-09-28T05:58:15.009Z,97.10
2022-09-28T06:00:41.549Z,97.14
2022-09-28T06:03:12.314Z,96.94
2022-09-28T06:05:39.787Z,97.12
2022-09-28T06:08:08.385Z,96.81
2022-09-28T06:10:35.486Z,96.85
2022-09-28T06:13:02.394Z,96.86
2022-09-28T06:15:31.435Z,96.98
2022-09-28T06:18:09.780Z,96.95
2022-09-28T06:20:41.430Z,97.17
2022-09-28T06:23:12.167Z,97.01
2022-09-28T06:25:39.288Z,97.00
2022-09-28T06:28:09.613Z,97.15
2022-09-28T06:30:38.933Z,97.17
2022-09-28T06:33:08.238Z,97.10
2022-09-28T06:35:35.240Z,97.06
2022-09-28T06:38:01.858Z,97.49
2022-09-28T06:40:28.933Z,98.09
2022-09-28T06:43:10.323Z,97.99
2022-09-28T06:45:38.588Z,97.61
2022-09-28T06:48:05.651Z,97.59
2022-09-28T06:50:36.078Z,97.82
2022-09-28T06:53:04.921Z,96.80
2022-09-28T06:55:31.566Z,95.78
2022-09-28T06:58:03.829Z,94.89
2022-09-28T07:00:34.012Z,94.53
2022-09-28T07:03:02.853Z,94.39
2022-09-28T07:05:29.879Z,93.06
2022-09-28T07:07:57.005Z,93.05
2022-09-28T07:10:27.858Z,89.55
2022-09-28T07:12:55.928Z,89.40
2022-09-28T07:15:23.190Z,89.49
2022-09-28T07:18:00.283Z,88.28
2022-09-28T07:20:28.428Z,87.66
2022-09-28T07:22:58.728Z,79.07
2022-09-28T07:25:30.289Z,74.64
2022-09-28T07:27:57.347Z,76.16
2022-09-28T07:30:26.713Z,71.59
2022-09-28T07:32:57.062Z,63.08
2022-09-28T07:35:23.578Z,57.23
2022-09-28T07:38:00.630Z,51.74
2022-09-28T07:40:49.294Z,51.05
2022-09-28T07:43:20.741Z,52.25
2022-09-28T07:45:49.197Z,46.64
2022-09-28T07:48:17.149Z,43.60
2022-09-28T07:50:48.198Z,40.56
2022-09-28T07:53:14.652Z,38.17
2022-09-28T07:55:41.012Z,36.97
2022-09-28T07:58:07.408Z,36.75
2022-09-28T08:00:34.350Z,37.03
2022-09-28T08:03:02.061Z,35.70
2022-09-28T08:05:31.990Z,37.30
2022-09-28T08:07:59.669Z,34.05
2022-09-28T08:10:26.628Z,35.04
2022-09-28T08:13:00.647Z,35.19
2022-09-28T08:15:36.821Z,34.53
2022-09-28T08:18:04.259Z,34.51
2022-09-28T08:20:51.856Z,34.83
2022-09-28T08:23:20.461Z,33.71
2022-09-28T08:25:52.493Z,35.53
2022-09-28T08:28:19.034Z,34.05
2022-09-28T08:30:47.129Z,33.57
2022-09-28T08:33:14.981Z,33.90
2022-09-28T08:35:42.175Z,35.39
2022-09-28T08:38:09.099Z,35.06
2022-09-28T08:40:48.198Z,36.72
2022-09-28T08:43:32.195Z,36.22
2022-09-28T08:46:00.123Z,35.56
2022-09-28T08:48:51.819Z,37.30
2022-09-28T08:51:30.951Z,36.09
2022-09-28T08:54:20.591Z,35.34
2022-09-28T08:56:47.080Z,35.39
2022-09-28T08:59:48.809Z,37.65
2022-09-28T09:02:20.859Z,35.14
2022-09-28T09:04:47.619Z,36.29
2022-09-28T09:07:38.143Z,37.64
2022-09-28T09:10:44.488Z,37.28
2022-09-28T09:13:48.641Z,39.35
2022-09-28T09:16:36.198Z,37.35
2022-09-28T09:19:16.706Z,41.34
2022-09-28T09:22:02.103Z,40.99
2022-09-28T09:25:08.027Z,43.54
2022-09-28T09:27:54.617Z,44.29
2022-09-28T09:30:29.891Z,45.19
2022-09-28T09:33:38.490Z,43.00
2022-09-28T09:36:34.367Z,40.69
2022-09-28T09:39:31.721Z,39.80
2022-09-28T09:42:08.160Z,42.78
2022-09-28T09:44:54.444Z,45.44
2022-09-28T09:47:41.052Z,47.73
2022-09-28T09:50:32.342Z,47.07
2022-09-28T09:53:24.912Z,49.71
2022-09-28T09:55:57.484Z,51.88
2022-09-28T09:58:31.701Z,52.07
2022-09-28T10:01:13.164Z,52.82
2022-09-28T10:03:47.103Z,52.96
2022-09-28T10:06:21.217Z,53.52
2022-09-28T10:09:02.213Z,54.21
2022-09-28T10:11:36.049Z,54.37
2022-09-28T10:14:04.331Z,57.46
2022-09-28T10:16:33.115Z,58.64
2022-09-28T10:19:00.652Z,59.48
2022-09-28T10:21:29.395Z,58.92
2022-09-28T10:23:58.221Z,58.84
2022-09-28T10:26:32.396Z,58.79
2022-09-28T10:29:14.807Z,59.73
2022-09-28T10:31:41.693Z,57.87
2022-09-28T10:34:14.158Z,58.90
2022-09-28T10:37:06.512Z,59.83
2022-09-28T10:39:39.244Z,59.84
2022-09-28T10:42:12.270Z,61.50
2022-09-28T10:44:48.661Z,61.00
2022-09-28T10:47:19.322Z,62.33
2022-09-28T10:49:49.249Z,61.36
2022-09-28T10:52:42.626Z,60.58
2022-09-28T10:55:21.264Z,58.25
2022-09-28T10:57:48.350Z,58.95
2022-09-28T11:00:35.013Z,57.61
2022-09-28T11:03:02.683Z,60.45
2022-09-28T11:05:29.968Z,62.61
2022-09-28T11:08:00.041Z,63.39
2022-09-28T11:10:29.868Z,63.98
2022-09-28T11:13:00.104Z,62.08
2022-09-28T11:15:31.651Z,58.43
2022-09-28T11:18:20.199Z,56.40
2022-09-28T11:20:46.781Z,54.94
2022-09-28T11:23:26.128Z,56.10
2022-09-28T11:26:07.323Z,59.22
2022-09-28T11:28:37.443Z,60.36
2022-09-28T11:31:07.276Z,61.38
2022-09-28T11:33:33.695Z,62.59
2022-09-28T11:36:18.515Z,62.19
2022-09-28T11:39:11.744Z,62.44
2022-09-28T11:42:04.936Z,56.84
2022-09-28T11:44:47.505Z,54.94
2022-09-28T11:47:36.925Z,55.40
2022-09-28T11:50:27.476Z,57.01
2022-09-28T11:53:25.748Z,59.45
2022-09-28T11:56:09.214Z,61.15
2022-09-28T11:58:42.117Z,61.51
2022-09-28T12:01:19.003Z,62.63
2022-09-28T12:03:52.381Z,62.46
2022-09-28T12:06:26.030Z,61.55
2022-09-28T12:09:06.653Z,62.44
2022-09-28T12:11:38.812Z,61.63
2022-09-28T12:14:11.231Z,62.55
2022-09-28T12:17:04.940Z,63.30
2022-09-28T12:19:41.388Z,63.13
2022-09-28T12:22:19.592Z,61.19
2022-09-28T12:24:49.116Z,61.18
2022-09-28T12:27:49.045Z,60.90
2022-09-28T12:30:21.332Z,61.82
2022-09-28T12:33:09.375Z,61.78
2022-09-28T12:35:52.549Z,63.30
2022-09-28T12:38:37.444Z,63.62
2022-09-28T12:41:22.642Z,64.60
2022-09-28T12:44:13.292Z,64.39
2022-09-28T12:46:58.220Z,66.40
2022-09-28T12:52:34.616Z,73.36
2022-09-28T12:55:19.828Z,75.31
2022-09-28T12:57:59.109Z,76.93
2022-09-28T13:00:54.957Z,77.86
2022-09-28T13:03:38.385Z,78.62
2022-09-28T13:06:29.568Z,78.90
2022-09-28T13:09:15.675Z,79.72
2022-09-28T13:12:00.572Z,80.78
2022-09-28T13:14:38.943Z,81.11
2022-09-28T13:17:29.235Z,82.04
2022-09-28T13:20:07.148Z,82.48
2022-09-28T13:22:46.212Z,82.56
2022-09-28T13:25:19.280Z,83.13
2022-09-28T13:27:53.357Z,83.22
2022-09-28T13:30:19.897Z,83.82
2022-09-28T13:32:48.456Z,83.87
2022-09-28T13:35:19.558Z,84.28
2022-09-28T13:38:08.831Z,84.66
2022-09-28T13:41:04.779Z,83.84
2022-09-28T13:43:49.755Z,84.17
2022-09-28T13:46:28.519Z,84.47
2022-09-28T13:49:23.390Z,84.89
2022-09-28T13:52:16.940Z,83.90
2022-09-28T13:55:00.597Z,83.49
2022-09-28T13:57:41.681Z,82.03
2022-09-28T14:00:10.820Z,81.78
2022-09-28T14:02:44.522Z,82.19
2022-09-28T14:05:51.952Z,80.55
2022-09-28T14:08:35.308Z,80.71
2022-09-28T14:11:26.764Z,81.25
2022-09-28T14:14:08.431Z,80.12
2022-09-28T14:16:36.910Z,79.39
2022-09-28T14:19:03.541Z,79.50
2022-09-28T14:21:49.218Z,79.98
2022-09-28T14:24:52.787Z,79.74
2022-09-28T14:27:41.845Z,80.06
2022-09-28T14:30:11.320Z,79.89
2022-09-28T14:32:39.983Z,79.97
2022-09-28T14:35:18.779Z,79.92
2022-09-28T14:38:07.180Z,79.92
2022-09-28T14:41:13.473Z,80.66
2022-09-28T14:43:45.749Z,80.29
2022-09-28T14:46:15.740Z,79.82
2022-09-28T14:48:53.419Z,80.32
2022-09-28T14:51:26.404Z,80.07
2022-09-28T14:53:54.897Z,80.17
2022-09-28T14:56:22.204Z,80.31
2022-09-28T14:58:57.190Z,79.94
2022-09-28T15:01:30.159Z,79.58
2022-09-28T15:04:01.929Z,79.71
2022-09-28T15:06:45.353Z,79.97
2022-09-28T15:09:35.217Z,80.27
2022-09-28T15:12:12.318Z,80.48
2022-09-28T15:14:46.600Z,80.29
2022-09-28T15:17:14.300Z,81.07
2022-09-28T15:20:05.840Z,80.97
2022-09-28T15:22:33.807Z,81.45
2022-09-28T15:25:03.270Z,81.26
2022-09-28T15:27:41.953Z,81.99
2022-09-28T15:30:20.308Z,82.29
2022-09-28T15:32:46.717Z,82.01
2022-09-28T15:35:20.448Z,81.74
2022-09-28T15:37:52.203Z,80.92
2022-09-28T15:40:25.555Z,81.24
2022-09-28T15:42:55.861Z,81.61
2022-09-28T15:45:39.890Z,81.02
2022-09-28T15:48:35.665Z,81.47
2022-09-28T15:51:11.700Z,81.24
2022-09-28T15:53:58.376Z,81.14
2022-09-28T15:56:26.563Z,81.65
2022-09-28T15:59:14.237Z,81.67
2022-09-28T16:01:45.529Z,81.30
2022-09-28T16:04:38.837Z,81.25
2022-09-28T16:07:23.520Z,80.91
2022-09-28T16:10:12.088Z,81.79
2022-09-28T16:12:41.220Z,81.60
2022-09-28T16:15:18.268Z,81.69
2022-09-28T16:17:51.339Z,81.16
2022-09-28T16:20:34.001Z,80.98
2022-09-28T16:23:08.749Z,80.91
2022-09-28T16:25:38.998Z,79.47
2022-09-28T16:28:06.275Z,79.07
2022-09-28T16:30:34.167Z,78.91
2022-09-28T16:33:05.091Z,79.00
2022-09-28T16:35:40.367Z,79.63
2022-09-28T16:38:14.822Z,79.33
2022-09-28T16:40:43.194Z,79.60
2022-09-28T16:43:19.274Z,79.78
2022-09-28T16:45:46.348Z,79.98
2022-09-28T16:48:20.345Z,80.38
2022-09-28T16:50:46.815Z,80.28
2022-09-28T16:53:35.380Z,80.84
2022-09-28T16:56:03.582Z,81.31
2022-09-28T16:58:31.649Z,81.55
2022-09-28T17:00:59.080Z,81.66
2022-09-28T17:03:26.417Z,82.17
2022-09-28T17:05:55.152Z,82.51
2022-09-28T17:08:24.151Z,82.96
2022-09-28T17:13:40.893Z,83.46
2022-09-28T17:16:13.279Z,83.52
2022-09-28T17:18:40.174Z,83.46
2022-09-28T17:21:11.359Z,84.08
2022-09-28T17:23:37.976Z,84.43
2022-09-28T17:26:05.416Z,84.50
2022-09-28T17:28:34.049Z,84.69
2022-09-28T17:31:00.500Z,84.89
2022-09-28T17:33:27.318Z,85.20
2022-09-28T17:35:59.634Z,85.44
2022-09-28T17:38:26.309Z,85.59
2022-09-28T17:40:52.943Z,85.89
2022-09-28T17:43:21.041Z,85.69
2022-09-28T17:45:48.963Z,85.92
2022-09-28T17:48:19.214Z,86.25
2022-09-28T17:50:47.390Z,86.27
2022-09-28T17:53:14.395Z,86.05
2022-09-28T17:55:43.105Z,86.64
2022-09-28T17:58:21.230Z,86.97
2022-09-28T18:00:50.071Z,86.93
2022-09-28T18:03:21.375Z,86.40
2022-09-28T18:06:00.921Z,86.71
2022-09-28T18:08:27.433Z,86.77
2022-09-28T18:10:54.565Z,86.69
2022-09-28T18:13:20.892Z,86.61
2022-09-28T18:15:51.192Z,87.11
2022-09-28T18:18:17.826Z,86.53
2022-09-28T18:20:44.203Z,87.13
2022-09-28T18:23:10.612Z,86.79
2022-09-28T18:25:45.104Z,86.83
2022-09-28T18:28:12.545Z,86.85
2022-09-28T18:30:40.838Z,87.35
2022-09-28T18:33:10.021Z,87.65
2022-09-28T18:35:36.505Z,87.69
2022-09-28T18:38:05.302Z,87.73
2022-09-28T18:40:35.717Z,88.16
2022-09-28T18:43:03.097Z,87.65
2022-09-28T18:45:29.988Z,87.71
2022-09-28T18:47:57.749Z,87.67
2022-09-28T18:50:24.288Z,87.80
2022-09-28T18:52:50.739Z,87.96
2022-09-28T18:55:17.777Z,87.85
2022-09-28T18:57:44.679Z,87.92
2022-09-28T19:00:11.949Z,88.44
2022-09-28T19:02:38.625Z,87.99
2022-09-28T19:05:06.055Z,88.32
2022-09-28T19:07:33.828Z,88.42
2022-09-28T19:10:00.244Z,88.05
2022-09-28T19:12:27.000Z,88.26
2022-09-28T19:14:53.448Z,88.26
2022-09-28T19:17:19.887Z,88.63
2022-09-28T19:19:46.248Z,88.32
2022-09-28T19:22:12.831Z,88.25
2022-09-28T19:24:39.200Z,88.19
2022-09-28T19:27:05.660Z,88.58
2022-09-28T19:29:32.229Z,88.34
2022-09-28T19:31:58.725Z,88.71
2022-09-28T19:34:26.993Z,89.06
2022-09-28T19:36:53.577Z,88.75
2022-09-28T19:39:20.131Z,88.33
2022-09-28T19:41:46.565Z,88.21
2022-09-28T19:44:27.898Z,88.42
2022-09-28T19:46:59.112Z,88.67
2022-09-28T19:49:27.281Z,88.28
2022-09-28T19:52:12.765Z,88.79
2022-09-28T19:54:45.000Z,88.51
2022-09-28T19:57:15.634Z,89.24
2022-09-28T19:59:42.197Z,88.32
2022-09-28T20:02:10.946Z,88.64
2022-09-28T20:04:37.535Z,88.91
2022-09-28T20:07:05.197Z,89.31
2022-09-28T20:09:32.621Z,89.22
2022-09-28T20:11:58.987Z,89.54
2022-09-28T20:14:26.446Z,88.86
2022-09-28T20:16:54.772Z,88.76
2022-09-28T20:19:22.971Z,89.77
2022-09-28T20:21:50.238Z,88.81
2022-09-28T20:24:17.375Z,89.09
2022-09-28T20:26:45.803Z,88.87
2022-09-28T20:29:12.692Z,88.49
2022-09-28T20:31:39.575Z,88.70
2022-09-28T20:34:07.081Z,88.96
2022-09-28T20:36:33.674Z,88.95
2022-09-28T20:39:03.877Z,89.07
2022-09-28T20:41:35.725Z,88.47
2022-09-28T20:44:05.758Z,88.51
2022-09-28T20:46:33.975Z,88.95
2022-09-28T20:49:00.686Z,88.86
2022-09-28T20:51:27.370Z,88.90
2022-09-28T20:53:55.846Z,89.24
2022-09-28T20:56:25.332Z,89.04
2022-09-28T20:58:52.196Z,88.73
2022-09-28T21:01:21.334Z,89.13
2022-09-28T21:04:05.389Z,88.83
2022-09-28T21:06:34.913Z,89.56
2022-09-28T21:09:02.058Z,88.98
2022-09-28T21:11:29.811Z,88.86
2022-09-28T21:13:58.914Z,89.11
2022-09-28T21:16:27.040Z,89.09
2022-09-28T21:18:53.657Z,88.38
2022-09-28T21:21:22.306Z,88.02
2022-09-28T21:23:53.427Z,88.37
2022-09-28T21:26:25.261Z,88.68
2022-09-28T21:28:57.827Z,88.84
2022-09-28T21:31:29.097Z,88.65
2022-09-28T21:33:56.919Z,88.49
2022-09-28T21:36:23.361Z,89.04
2022-09-28T21:38:50.286Z,88.71
2022-09-28T21:41:17.174Z,88.54
2022-09-28T21:43:43.701Z,89.29
2022-09-28T21:46:10.449Z,89.02
2022-09-28T21:48:37.215Z,88.62
2022-09-28T21:51:06.536Z,88.68
2022-09-28T21:53:35.270Z,88.66
2022-09-28T21:56:03.666Z,88.64
2022-09-28T21:58:32.014Z,89.16
2022-09-28T22:01:07.612Z,89.09
2022-09-28T22:03:35.575Z,88.70
2022-09-28T22:06:03.820Z,89.05
2022-09-28T22:08:30.558Z,89.00
2022-09-28T22:11:01.710Z,88.84
2022-09-28T22:13:29.525Z,88.60
2022-09-28T22:15:58.662Z,88.47
2022-09-28T22:18:26.933Z,88.78
2022-09-28T22:21:04.003Z,88.67
2022-09-28T22:23:30.427Z,88.43
2022-09-28T22:26:01.995Z,88.28
2022-09-28T22:28:29.048Z,88.28
2022-09-28T22:30:56.208Z,88.74
2022-09-28T22:33:22.989Z,88.71
2022-09-28T22:35:51.321Z,88.84
2022-09-28T22:38:22.304Z,89.06
2022-09-28T22:40:54.619Z,88.66
2022-09-28T22:43:23.520Z,89.17
2022-09-28T22:45:50.569Z,89.14
2022-09-28T22:48:17.172Z,88.97
2022-09-28T22:50:51.109Z,88.94
2022-09-28T22:53:19.005Z,88.87
2022-09-28T22:55:45.562Z,88.99
2022-09-28T22:58:11.951Z,89.09
2022-09-28T23:00:38.408Z,88.77
2022-09-28T23:03:05.168Z,88.69
2022-09-28T23:05:31.960Z,88.72
2022-09-28T23:07:59.778Z,88.32
2022-09-28T23:10:26.535Z,88.61
2022-09-28T23:12:54.136Z,88.44
2022-09-28T23:15:21.580Z,88.49
2022-09-28T23:17:54.621Z,88.39
2022-09-28T23:20:21.939Z,88.49
2022-09-28T23:22:49.157Z,88.35
2022-09-28T23:25:17.362Z,88.48
2022-09-28T23:27:48.437Z,88.49
2022-09-28T23:30:17.072Z,88.07
2022-09-28T23:32:43.805Z,88.48
2022-09-28T23:35:10.901Z,88.82
2022-09-28T23:37:37.914Z,88.60
2022-09-28T23:40:06.079Z,88.61
2022-09-28T23:42:34.794Z,88.58
2022-09-28T23:45:01.148Z,88.49
2022-09-28T23:47:27.509Z,88.44
2022-09-28T23:49:54.031Z,88.34
2022-09-28T23:52:20.563Z,88.21
2022-09-28T23:54:46.989Z,88.16
2022-09-28T23:57:13.560Z,88.21
2022-09-28T23:59:42.834Z,88.41
